Sturgis, SD (57785)

8:45 AM MDT on October 02, 2014 (GMT -0600)
Elk Creek Village | Change Station
CLOSE
Current Station
Personal Weather Station
Location: Piedmont, SD
Elevation: 3576 ft
Nearby Weather Stations

Elev 3576 ft 44.24 °N, 103.40 °W | Updated 2 seconds ago

Clear
Clear
54.4 °F
Feels Like 54.4 °F
N
4.0
Wind Variable Wind from WSW
Gusts 10.0 mph

Today
High -- | Low -- °F
--% Chance of Precip.
Yesterday
High -- | Low -- °F
Precip. -- in
6:52 AM 6:32 PM
First Quarter, 59% visible
Pressure 30.01 in
Visibility 10.0 miles
Clouds Clear
Dew Point 35 °F
Humidity 48%
Rainfall 0.00 in
Snow Depth 0 in , 1 in
UV 1 out of 12
Pollen 4.20 out of 12
Air Quality Not available.
Flu Activity Not available.
METAR KRCA 021358Z AUTO 26006KT 10SM CLR 07/03 A2999 RMK AO2 SLP160 T00700029 $

More Conditions Fewer Conditions

Pressure 30.01 in
Visibility 10.0 miles
Clouds Clear
Dew Point 35 °F
Humidity 48%
Rainfall 0.00 in
Snow Depth 0 in , 1 in
UV 1 out of 12
Pollen 4.20 out of 12
Air Quality Not available.
Flu Activity Not available.
METAR KRCA 021358Z AUTO 26006KT 10SM CLR 07/03 A2999 RMK AO2 SLP160 T00700029 $

More Conditions Fewer Conditions

10-Day Weather Forecast

Almanac

Astronomy

Oct. 02, 2014 Rise Set
Actual Time 6:52 AM MDT 6:32 PM MDT
Civil Twilight 6:23 AM MDT 7:01 PM MDT
Nautical Twilight 5:50 AM MDT 7:35 PM MDT
Astronomical Twilight 5:16 AM MDT 8:09 PM MDT
Moon 2:52 PM MDT No Moon Set
Length of Visible Light 12h 37m
Length of Day
11h 39m
Tomorrow will be 3m 2s shorter.
First Quarter, 59% of the Moon is Illuminated
Today
First Quarter
Oct 8
Full
Oct 15
Last Quarter
Oct 23
New
Oct 30
First Quarter

Today's Extremes

State Highs State Lows

Community

WunderPhotos

Upload Photos

1,758,257 photos uploaded!

WunderBlogs® & News

Nearby

Snow Depth

Station Depth Elevation
North Rapid Creek 0 in 6130 ft
Blind Park 1 in 6890 ft

Earthquake Activity

City Distance Mag. Time & Date
No recent earthquake activity has been reported nearby.
Minimum magnitude displayed is 2.5.

Coastal Water Temperatures

Place Temperature
No Stations Reporting

Nearby Weather Stations